createdAt,value
2023-02-14T00:01:50.268Z,102589.90
2023-02-14T00:04:19.648Z,102590.17
2023-02-14T00:06:48.453Z,102592.60
2023-02-14T00:09:19.800Z,102590.92
2023-02-14T00:11:48.055Z,102591.74
2023-02-14T00:14:36.294Z,102590.05
2023-02-14T00:17:04.470Z,102587.79
2023-02-14T00:19:34.593Z,102588.00
2023-02-14T00:22:04.208Z,102586.46
2023-02-14T00:24:33.013Z,102589.14
2023-02-14T00:27:01.145Z,102589.17
2023-02-14T00:29:32.456Z,102588.84
2023-02-14T00:32:01.228Z,102586.50
2023-02-14T00:34:29.707Z,102585.54
2023-02-14T00:36:57.700Z,102584.42
2023-02-14T00:39:25.962Z,102587.38
2023-02-14T00:41:53.989Z,102592.23
2023-02-14T00:44:22.166Z,102588.02
2023-02-14T00:46:50.161Z,102593.36
2023-02-14T00:49:18.471Z,102592.21
2023-02-14T00:51:46.630Z,102591.26
2023-02-14T00:54:14.647Z,102600.42
2023-02-14T00:56:42.669Z,102599.02
2023-02-14T00:59:11.888Z,102600.35
2023-02-14T01:01:40.196Z,102601.19
2023-02-14T01:04:09.077Z,102606.27
2023-02-14T01:06:37.130Z,102602.97
2023-02-14T01:09:05.270Z,102607.76
2023-02-14T01:11:34.454Z,102610.59
2023-02-14T01:14:02.699Z,102605.61
2023-02-14T01:16:31.017Z,102606.00
2023-02-14T01:19:01.117Z,102605.42
2023-02-14T01:21:32.999Z,102601.98
2023-02-14T01:24:05.263Z,102598.13
2023-02-14T01:26:35.003Z,102595.66
2023-02-14T01:29:05.659Z,102593.52
2023-02-14T01:31:35.913Z,102588.29
2023-02-14T01:34:05.417Z,102586.45
2023-02-14T01:36:39.300Z,102588.50
2023-02-14T01:39:12.364Z,102582.69
2023-02-14T01:41:43.933Z,102581.15
2023-02-14T01:44:15.067Z,102580.45
2023-02-14T01:46:46.933Z,102577.98
2023-02-14T01:49:22.168Z,102579.03
2023-02-14T01:51:59.760Z,102578.44
2023-02-14T01:54:29.388Z,102581.01
2023-02-14T01:57:05.457Z,102578.33
2023-02-14T01:59:38.411Z,102585.50
2023-02-14T02:02:07.433Z,102581.06
2023-02-14T02:04:42.557Z,102583.08
2023-02-14T02:07:19.461Z,102581.48
2023-02-14T02:10:08.488Z,102577.61
2023-02-14T02:12:38.126Z,102577.02
2023-02-14T02:15:07.590Z,102575.58
2023-02-14T02:17:38.387Z,102572.90
2023-02-14T02:20:32.589Z,102571.42
2023-02-14T02:23:35.780Z,102573.40
2023-02-14T02:26:47.352Z,102571.63
2023-02-14T02:30:00.350Z,102571.21
2023-02-14T02:33:03.653Z,102566.10
2023-02-14T02:35:49.770Z,102565.11
2023-02-14T02:38:54.585Z,102562.99
2023-02-14T02:41:52.831Z,102563.88
2023-02-14T02:44:37.605Z,102559.92
2023-02-14T02:47:13.516Z,102555.51
2023-02-14T02:50:41.334Z,102561.05
2023-02-14T02:53:29.484Z,102557.38
2023-02-14T02:56:46.332Z,102559.31
2023-02-14T02:59:42.665Z,102556.60
2023-02-14T03:02:18.695Z,102557.73
2023-02-14T03:04:56.635Z,102558.05
2023-02-14T03:07:40.583Z,102560.96
2023-02-14T03:10:16.380Z,102560.82
2023-02-14T03:13:48.964Z,102559.71
2023-02-14T03:16:32.215Z,102562.08
2023-02-14T03:19:23.806Z,102562.70
2023-02-14T03:22:19.529Z,102563.20
2023-02-14T03:25:04.866Z,102568.09
2023-02-14T03:27:44.546Z,102571.73
2023-02-14T03:30:41.958Z,102574.39
2023-02-14T03:33:28.319Z,102570.98
2023-02-14T03:36:11.193Z,102572.99
2023-02-14T03:39:03.811Z,102578.08
2023-02-14T03:41:39.140Z,102580.36
2023-02-14T03:44:11.350Z,102581.30
2023-02-14T03:46:47.458Z,102582.02
2023-02-14T03:49:21.942Z,102572.95
2023-02-14T03:51:55.064Z,102572.02
2023-02-14T03:54:26.138Z,102572.92
2023-02-14T03:57:24.996Z,102576.33
2023-02-14T03:59:56.713Z,102572.75
2023-02-14T04:02:46.623Z,102571.45
2023-02-14T04:05:22.254Z,102567.76
2023-02-14T04:07:54.494Z,102572.83
2023-02-14T04:10:23.537Z,102572.74
2023-02-14T04:12:52.048Z,102574.33
2023-02-14T04:15:20.096Z,102573.25
2023-02-14T04:18:07.080Z,102568.27
2023-02-14T04:20:35.274Z,102566.78
2023-02-14T04:23:04.324Z,102567.10
2023-02-14T04:25:32.498Z,102566.70
2023-02-14T04:28:00.526Z,102571.63
2023-02-14T04:30:28.661Z,102571.83
2023-02-14T04:32:56.728Z,102572.38
2023-02-14T04:35:24.696Z,102572.77
2023-02-14T04:37:52.796Z,102574.64
2023-02-14T04:40:20.914Z,102574.79
2023-02-14T04:42:48.941Z,102573.08
2023-02-14T04:45:17.090Z,102570.42
2023-02-14T04:47:45.363Z,102570.91
2023-02-14T04:50:14.402Z,102568.06
2023-02-14T04:52:42.571Z,102568.37
2023-02-14T04:55:10.783Z,102571.98
2023-02-14T04:57:38.884Z,102575.23
2023-02-14T05:00:07.998Z,102568.00
2023-02-14T05:02:35.985Z,102564.38
2023-02-14T05:05:04.527Z,102565.27
2023-02-14T05:07:32.582Z,102561.38
2023-02-14T05:10:04.953Z,102562.13
2023-02-14T05:12:32.910Z,102561.98
2023-02-14T05:15:00.890Z,102566.05
2023-02-14T05:17:29.080Z,102568.40
2023-02-14T05:19:57.063Z,102568.30
2023-02-14T05:22:25.143Z,102566.75
2023-02-14T05:24:53.162Z,102567.21
2023-02-14T05:27:21.129Z,102570.63
2023-02-14T05:29:49.326Z,102569.20
2023-02-14T05:32:17.506Z,102567.73
2023-02-14T05:34:45.524Z,102569.83
2023-02-14T05:37:13.480Z,102577.83
2023-02-14T05:39:41.556Z,102578.09
2023-02-14T05:42:12.571Z,102578.44
2023-02-14T05:44:40.587Z,102580.87
2023-02-14T05:47:08.593Z,102586.59
2023-02-14T05:49:38.105Z,102589.21
2023-02-14T05:52:06.253Z,102582.81
2023-02-14T05:54:34.549Z,102579.06
2023-02-14T05:57:02.693Z,102583.83
2023-02-14T05:59:30.775Z,102586.18
2023-02-14T06:01:58.750Z,102584.27
2023-02-14T06:04:26.787Z,102588.48
2023-02-14T06:06:54.867Z,102585.81
2023-02-14T06:09:22.948Z,102590.04
2023-02-14T06:11:51.122Z,102588.54
2023-02-14T06:14:19.341Z,102591.31
2023-02-14T06:16:47.573Z,102592.04
2023-02-14T06:19:15.692Z,102602.88
2023-02-14T06:21:43.780Z,102602.48
2023-02-14T06:24:11.846Z,102609.11
2023-02-14T06:26:40.263Z,102604.33
2023-02-14T06:29:08.442Z,102605.08
2023-02-14T06:31:36.848Z,102602.80
2023-02-14T06:34:04.920Z,102604.60
2023-02-14T06:36:33.853Z,102608.43
2023-02-14T06:39:01.938Z,102609.28
2023-02-14T06:41:30.032Z,102609.17
2023-02-14T06:43:58.008Z,102607.40
2023-02-14T06:46:26.093Z,102606.56
2023-02-14T06:48:54.107Z,102611.64
2023-02-14T06:51:22.172Z,102613.93
2023-02-14T06:53:50.291Z,102617.70
2023-02-14T06:56:18.321Z,102618.36
2023-02-14T06:58:46.419Z,102616.50
2023-02-14T07:01:16.563Z,102622.98
2023-02-14T07:03:44.610Z,102624.84
2023-02-14T07:06:12.852Z,102620.27
2023-02-14T07:08:42.229Z,102621.42
2023-02-14T07:11:10.468Z,102626.39
2023-02-14T07:13:38.587Z,102630.79
2023-02-14T07:16:06.854Z,102637.05
2023-02-14T07:18:35.264Z,102636.45
2023-02-14T07:21:03.563Z,102627.20
2023-02-14T07:23:32.831Z,102632.84
2023-02-14T07:26:00.967Z,102635.23
2023-02-14T07:28:30.473Z,102642.54
2023-02-14T07:31:03.143Z,102646.02
2023-02-14T07:33:31.412Z,102640.71
2023-02-14T07:36:05.465Z,102643.16
2023-02-14T07:38:34.520Z,102646.69
2023-02-14T07:41:05.367Z,102649.53
2023-02-14T07:43:34.550Z,102651.38
2023-02-14T07:46:03.508Z,102656.52
2023-02-14T07:48:34.772Z,102655.62
2023-02-14T07:51:03.414Z,102651.57
2023-02-14T07:53:31.731Z,102653.77
2023-02-14T07:55:59.879Z,102656.98
2023-02-14T07:58:29.221Z,102656.50
2023-02-14T08:00:57.370Z,102650.30
2023-02-14T08:03:25.794Z,102659.32
2023-02-14T08:05:59.788Z,102660.27
2023-02-14T08:08:32.645Z,102660.29
2023-02-14T08:11:00.982Z,102651.82
2023-02-14T08:13:29.495Z,102646.52
2023-02-14T08:16:07.521Z,102653.00
2023-02-14T08:18:41.963Z,102652.27
2023-02-14T08:21:11.402Z,102645.90
2023-02-14T08:23:39.417Z,102649.33
2023-02-14T08:26:07.865Z,102657.98
2023-02-14T08:28:35.888Z,102661.91
2023-02-14T08:31:05.275Z,102662.89
2023-02-14T08:33:34.068Z,102659.74
2023-02-14T08:36:03.138Z,102666.21
2023-02-14T08:38:31.334Z,102669.70
2023-02-14T08:41:04.382Z,102667.58
2023-02-14T08:43:34.406Z,102663.34
2023-02-14T08:46:03.422Z,102667.02
2023-02-14T08:48:32.099Z,102666.40
2023-02-14T08:51:12.127Z,102671.41
2023-02-14T08:53:41.865Z,102665.14
2023-02-14T08:56:13.678Z,102661.05
2023-02-14T08:58:42.068Z,102667.81
2023-02-14T09:01:17.422Z,102670.92
2023-02-14T09:03:45.555Z,102670.27
2023-02-14T09:06:17.533Z,102672.80
2023-02-14T09:08:46.615Z,102675.80
2023-02-14T09:11:20.781Z,102673.39
2023-02-14T09:13:51.076Z,102676.00
2023-02-14T09:16:22.374Z,102678.86
2023-02-14T09:18:52.684Z,102681.25
2023-02-14T09:21:25.861Z,102680.47
2023-02-14T09:23:54.570Z,102682.94
2023-02-14T09:26:22.870Z,102685.16
2023-02-14T09:28:50.987Z,102693.09
2023-02-14T09:31:24.315Z,102686.34
2023-02-14T09:34:11.456Z,102674.89
2023-02-14T09:36:58.065Z,102674.16
2023-02-14T09:39:26.053Z,102684.84
2023-02-14T09:42:31.764Z,102683.61
2023-02-14T09:45:03.869Z,102677.72
2023-02-14T09:48:10.122Z,102682.38
2023-02-14T09:50:56.218Z,102690.09
2023-02-14T09:53:35.953Z,102683.10
2023-02-14T09:56:12.208Z,102673.57
2023-02-14T09:58:53.315Z,102678.80
2023-02-14T10:01:36.368Z,102682.54
2023-02-14T10:04:24.065Z,102673.15
2023-02-14T10:07:09.892Z,102673.05
2023-02-14T10:10:06.385Z,102669.56
2023-02-14T10:12:57.301Z,102666.45
2023-02-14T10:15:34.262Z,102666.42
2023-02-14T10:18:15.304Z,102670.89
2023-02-14T10:20:53.150Z,102661.77
2023-02-14T10:23:30.418Z,102660.41
2023-02-14T10:26:07.976Z,102661.27
2023-02-14T10:28:45.357Z,102657.80
2023-02-14T10:32:00.372Z,102656.70
2023-02-14T10:34:46.121Z,102652.20
2023-02-14T10:37:44.844Z,102650.30
2023-02-14T10:41:06.222Z,102653.72
2023-02-14T10:43:51.416Z,102652.91
2023-02-14T10:46:43.045Z,102648.55
2023-02-14T10:49:49.602Z,102650.36
2023-02-14T10:52:35.690Z,102651.64
2023-02-14T10:55:33.029Z,102651.82
2023-02-14T10:58:06.432Z,102650.86
2023-02-14T11:00:39.330Z,102644.84
2023-02-14T11:03:10.707Z,102645.11
2023-02-14T11:05:46.682Z,102642.48
2023-02-14T11:08:26.973Z,102638.95
2023-02-14T11:11:30.110Z,102640.97
2023-02-14T11:13:58.200Z,102636.71
2023-02-14T11:16:37.423Z,102639.13
2023-02-14T11:19:14.771Z,102642.46
2023-02-14T11:21:46.242Z,102633.04
2023-02-14T11:24:31.308Z,102624.58
2023-02-14T11:27:14.326Z,102620.23
2023-02-14T11:29:53.221Z,102617.42
2023-02-14T11:32:29.643Z,102617.38
2023-02-14T11:35:05.701Z,102620.80
2023-02-14T11:37:49.655Z,102622.17
2023-02-14T11:40:39.669Z,102624.90
2023-02-14T11:43:14.173Z,102621.02
2023-02-14T11:45:45.959Z,102623.55
2023-02-14T11:48:37.233Z,102615.77
2023-02-14T11:51:09.143Z,102613.98
2023-02-14T11:53:48.719Z,102616.23
2023-02-14T11:56:19.270Z,102614.77
2023-02-14T11:59:03.827Z,102606.42
2023-02-14T12:01:36.090Z,102610.09
2023-02-14T12:04:23.211Z,102608.58
2023-02-14T12:06:51.334Z,102599.08
2023-02-14T12:09:22.373Z,102595.19
2023-02-14T12:12:04.617Z,102601.15
2023-02-14T12:14:35.537Z,102594.33
2023-02-14T12:17:39.146Z,102586.30
2023-02-14T12:20:20.904Z,102582.68
2023-02-14T12:23:03.654Z,102585.73
2023-02-14T12:26:00.443Z,102584.52
2023-02-14T12:28:39.638Z,102588.85
2023-02-14T12:31:13.320Z,102582.66
2023-02-14T12:33:41.804Z,102582.53
2023-02-14T12:37:15.001Z,102579.36
2023-02-14T12:40:08.445Z,102577.43
2023-02-14T12:43:15.954Z,102574.92
2023-02-14T12:46:21.393Z,102580.73
2023-02-14T12:49:18.874Z,102581.86
2023-02-14T12:51:51.725Z,102574.68
2023-02-14T12:54:48.277Z,102572.64
2023-02-14T12:57:27.809Z,102567.75
2023-02-14T13:00:33.215Z,102567.44
2023-02-14T13:03:35.733Z,102563.89
2023-02-14T13:06:44.781Z,102562.59
2023-02-14T13:09:38.855Z,102564.63
2023-02-14T13:12:26.446Z,102566.33
2023-02-14T13:15:21.920Z,102561.31
2023-02-14T13:18:11.151Z,102566.05
2023-02-14T13:20:48.332Z,102564.99
2023-02-14T13:23:27.566Z,102571.39
2023-02-14T13:26:41.696Z,102561.77
2023-02-14T13:29:21.099Z,102563.15
2023-02-14T13:31:52.311Z,102564.80
2023-02-14T13:34:39.165Z,102566.54
2023-02-14T13:37:12.455Z,102559.21
2023-02-14T13:40:08.146Z,102560.36
2023-02-14T13:42:48.805Z,102566.61
2023-02-14T13:45:50.609Z,102566.52
2023-02-14T13:48:25.247Z,102562.84
2023-02-14T13:51:09.036Z,102559.77
2023-02-14T13:53:48.407Z,102558.71
2023-02-14T13:56:16.403Z,102556.33
2023-02-14T13:58:55.874Z,102557.45
2023-02-14T14:01:50.199Z,102554.31
2023-02-14T14:04:31.946Z,102556.50
2023-02-14T14:07:03.022Z,102556.80
2023-02-14T14:09:51.137Z,102556.23
2023-02-14T14:12:28.265Z,102555.45
2023-02-14T14:15:05.398Z,102552.43
2023-02-14T14:17:42.972Z,102547.02
2023-02-14T14:20:16.757Z,102541.96
2023-02-14T14:22:49.422Z,102541.13
2023-02-14T14:25:38.196Z,102539.54
2023-02-14T14:28:21.212Z,102538.27
2023-02-14T14:30:52.292Z,102538.06
2023-02-14T14:33:28.480Z,102538.06
2023-02-14T14:36:07.376Z,102536.76
2023-02-14T14:38:49.290Z,102531.37
2023-02-14T14:41:18.044Z,102531.73
2023-02-14T14:43:47.331Z,102536.51
2023-02-14T14:46:16.387Z,102536.10
2023-02-14T14:48:54.858Z,102534.25
2023-02-14T14:51:35.493Z,102538.43
2023-02-14T14:54:17.640Z,102544.42
2023-02-14T14:56:57.008Z,102537.27
2023-02-14T14:59:36.000Z,102530.63
2023-02-14T15:02:26.354Z,102532.97
2023-02-14T15:04:55.010Z,102527.58
2023-02-14T15:07:34.838Z,102524.19
2023-02-14T15:10:03.636Z,102520.69
2023-02-14T15:12:50.219Z,102518.10
2023-02-14T15:15:18.999Z,102516.25
2023-02-14T15:17:48.150Z,102514.23
2023-02-14T15:20:23.741Z,102511.91
2023-02-14T15:22:53.476Z,102509.46
2023-02-14T15:25:31.909Z,102511.73
2023-02-14T15:28:01.514Z,102505.19
2023-02-14T15:30:34.747Z,102506.37
2023-02-14T15:33:06.007Z,102507.21
2023-02-14T15:35:42.046Z,102501.54
2023-02-14T15:38:13.455Z,102496.73
2023-02-14T15:40:43.516Z,102498.30
2023-02-14T15:43:30.222Z,102497.39
2023-02-14T15:46:28.003Z,102498.23
2023-02-14T15:49:01.164Z,102504.16
2023-02-14T15:51:31.614Z,102503.02
2023-02-14T15:54:04.259Z,102507.83
2023-02-14T15:56:47.464Z,102510.54
2023-02-14T15:59:26.361Z,102505.73
2023-02-14T16:02:00.526Z,102509.26
2023-02-14T16:04:32.592Z,102506.04
2023-02-14T16:07:24.709Z,102499.69
2023-02-14T16:10:25.324Z,102502.15
2023-02-14T16:13:32.124Z,102506.06
2023-02-14T16:16:06.533Z,102508.48
2023-02-14T16:18:39.955Z,102510.15
2023-02-14T16:21:16.582Z,102513.94
2023-02-14T16:24:08.235Z,102520.83
2023-02-14T16:26:39.918Z,102516.13
2023-02-14T16:29:15.994Z,102518.66
2023-02-14T16:32:14.082Z,102516.81
2023-02-14T16:34:39.106Z,102521.17
2023-02-14T16:37:18.900Z,102520.15
2023-02-14T16:39:48.062Z,102518.14
2023-02-14T16:42:18.146Z,102517.32
2023-02-14T16:44:47.940Z,102523.05
2023-02-14T16:47:18.658Z,102522.30
2023-02-14T16:49:47.343Z,102520.60
2023-02-14T16:52:23.862Z,102523.48
2023-02-14T16:54:57.347Z,102524.02
2023-02-14T16:57:30.669Z,102523.84
2023-02-14T16:59:58.733Z,102525.80
2023-02-14T17:02:28.426Z,102520.07
2023-02-14T17:04:58.957Z,102523.98
2023-02-14T17:07:29.691Z,102524.27
2023-02-14T17:10:06.217Z,102529.67
2023-02-14T17:12:39.953Z,102526.52
2023-02-14T17:15:18.766Z,102529.20
2023-02-14T17:17:50.156Z,102534.33
2023-02-14T17:20:20.280Z,102534.38
2023-02-14T17:22:48.707Z,102530.96
2023-02-14T17:25:21.729Z,102530.66
2023-02-14T17:27:51.337Z,102529.80
2023-02-14T17:30:20.465Z,102531.70
2023-02-14T17:32:51.866Z,102532.30
2023-02-14T17:35:21.188Z,102531.03
2023-02-14T17:37:49.414Z,102528.19
2023-02-14T17:40:17.746Z,102533.61
2023-02-14T17:42:45.921Z,102530.05
2023-02-14T17:45:14.662Z,102531.49
2023-02-14T17:47:44.733Z,102529.96
2023-02-14T17:50:14.522Z,102535.39
2023-02-14T17:52:42.657Z,102536.14
2023-02-14T17:55:15.958Z,102529.63
2023-02-14T17:57:44.273Z,102523.87
2023-02-14T18:00:25.397Z,102523.98
2023-02-14T18:02:53.632Z,102527.98
2023-02-14T18:05:29.134Z,102526.40
2023-02-14T18:08:03.429Z,102519.73
2023-02-14T18:10:46.424Z,102526.63
2023-02-14T18:13:14.396Z,102523.97
2023-02-14T18:15:46.976Z,102529.06
2023-02-14T18:18:18.796Z,102528.17
2023-02-14T18:20:57.582Z,102525.20
2023-02-14T18:23:26.441Z,102530.04
2023-02-14T18:26:01.096Z,102527.01
2023-02-14T18:28:35.009Z,102522.27
2023-02-14T18:31:14.032Z,102522.40
2023-02-14T18:33:43.526Z,102531.81
2023-02-14T18:36:24.283Z,102524.89
2023-02-14T18:38:57.311Z,102524.19
2023-02-14T18:41:32.011Z,102528.33
2023-02-14T18:44:01.990Z,102530.60
2023-02-14T18:46:35.659Z,102529.65
2023-02-14T18:49:08.485Z,102526.09
2023-02-14T18:51:42.287Z,102524.75
2023-02-14T18:54:11.372Z,102524.85
2023-02-14T18:56:42.281Z,102525.10
2023-02-14T18:59:13.415Z,102522.00
2023-02-14T19:01:45.074Z,102518.35
2023-02-14T19:04:14.853Z,102518.57
2023-02-14T19:06:44.978Z,102521.04
2023-02-14T19:09:17.198Z,102509.39
2023-02-14T19:11:45.981Z,102509.13
2023-02-14T19:14:14.066Z,102515.89
2023-02-14T19:16:57.069Z,102506.23
2023-02-14T19:19:34.867Z,102502.87
2023-02-14T19:22:03.774Z,102507.49
2023-02-14T19:24:31.782Z,102509.30
2023-02-14T19:27:00.172Z,102507.43
2023-02-14T19:29:28.357Z,102500.49
2023-02-14T19:31:56.452Z,102500.70
2023-02-14T19:34:30.400Z,102507.05
2023-02-14T19:37:02.222Z,102507.58
2023-02-14T19:39:33.985Z,102502.58
2023-02-14T19:42:02.205Z,102498.68
2023-02-14T19:44:31.254Z,102503.94
2023-02-14T19:47:01.897Z,102507.30
2023-02-14T19:49:32.221Z,102500.64
2023-02-14T19:52:00.260Z,102502.17
2023-02-14T19:54:30.415Z,102504.05
2023-02-14T19:56:58.608Z,102504.54
2023-02-14T19:59:27.922Z,102499.34
2023-02-14T20:01:56.874Z,102501.98
2023-02-14T20:04:28.901Z,102504.59
2023-02-14T20:06:57.890Z,102502.98
2023-02-14T20:09:26.481Z,102502.19
2023-02-14T20:11:56.995Z,102509.29
2023-02-14T20:14:29.932Z,102513.01
2023-02-14T20:17:03.694Z,102504.21
2023-02-14T20:19:37.702Z,102498.75
2023-02-14T20:22:08.212Z,102502.27
2023-02-14T20:24:36.208Z,102502.76
2023-02-14T20:27:04.345Z,102498.97
2023-02-14T20:29:33.217Z,102501.94
2023-02-14T20:32:03.587Z,102499.05
2023-02-14T20:34:31.811Z,102496.58
2023-02-14T20:37:00.271Z,102498.20
2023-02-14T20:39:31.953Z,102498.84
2023-02-14T20:42:01.097Z,102492.24
2023-02-14T20:44:29.787Z,102494.91
2023-02-14T20:46:58.199Z,102491.30
2023-02-14T20:49:33.591Z,102487.25
2023-02-14T20:52:23.363Z,102487.46
2023-02-14T20:54:54.315Z,102490.57
2023-02-14T20:57:23.581Z,102488.21
2023-02-14T20:59:51.713Z,102482.17
2023-02-14T21:02:19.666Z,102481.10
2023-02-14T21:04:47.725Z,102484.20
2023-02-14T21:07:15.700Z,102482.73
2023-02-14T21:09:43.749Z,102478.40
2023-02-14T21:12:12.278Z,102480.20
2023-02-14T21:14:40.264Z,102480.50
2023-02-14T21:17:08.541Z,102477.30
2023-02-14T21:19:38.057Z,102471.10
2023-02-14T21:22:06.486Z,102474.31
2023-02-14T21:24:37.311Z,102465.10
2023-02-14T21:27:08.663Z,102466.27
2023-02-14T21:29:36.692Z,102467.05
2023-02-14T21:32:05.205Z,102463.23
2023-02-14T21:34:35.937Z,102462.64
2023-02-14T21:37:05.435Z,102461.54
2023-02-14T21:39:35.756Z,102461.22
2023-02-14T21:42:08.034Z,102460.38
2023-02-14T21:44:55.194Z,102451.44
2023-02-14T21:47:23.542Z,102450.98
2023-02-14T21:50:10.245Z,102454.75
2023-02-14T21:52:38.232Z,102456.86
2023-02-14T21:55:06.758Z,102458.13
2023-02-14T21:57:34.697Z,102457.25
2023-02-14T22:00:04.066Z,102453.52
2023-02-14T22:02:39.829Z,102454.40
2023-02-14T22:05:08.300Z,102457.14
2023-02-14T22:07:37.604Z,102458.34
2023-02-14T22:10:06.496Z,102453.58
2023-02-14T22:12:36.199Z,102447.63
2023-02-14T22:15:05.292Z,102450.50
2023-02-14T22:17:33.615Z,102454.03
2023-02-14T22:20:01.629Z,102451.23
2023-02-14T22:22:29.623Z,102449.50
2023-02-14T22:24:57.652Z,102448.79
2023-02-14T22:27:25.724Z,102447.83
2023-02-14T22:29:53.836Z,102447.35
2023-02-14T22:32:23.690Z,102446.59
2023-02-14T22:34:52.228Z,102444.83
2023-02-14T22:37:23.000Z,102443.16
2023-02-14T22:39:51.056Z,102442.98
2023-02-14T22:42:20.541Z,102440.08
2023-02-14T22:44:48.890Z,102439.60
2023-02-14T22:47:16.947Z,102437.05
2023-02-14T22:49:44.977Z,102435.67
2023-02-14T22:52:13.309Z,102426.63
2023-02-14T22:54:41.702Z,102422.34
2023-02-14T22:57:09.899Z,102424.59
2023-02-14T22:59:38.601Z,102427.60
2023-02-14T23:02:07.148Z,102426.70
2023-02-14T23:04:35.503Z,102420.04
2023-02-14T23:07:03.616Z,102419.23
2023-02-14T23:09:31.916Z,102415.06
2023-02-14T23:12:00.590Z,102411.31
2023-02-14T23:14:47.373Z,102412.61
2023-02-14T23:17:19.157Z,102411.17
2023-02-14T23:20:07.106Z,102408.67
2023-02-14T23:22:42.121Z,102400.30
2023-02-14T23:25:12.533Z,102407.99
2023-02-14T23:27:45.252Z,102407.55
2023-02-14T23:30:19.395Z,102408.31
2023-02-14T23:32:48.748Z,102408.16
2023-02-14T23:35:17.405Z,102410.63
2023-02-14T23:37:45.857Z,102404.97
2023-02-14T23:40:14.728Z,102408.77
2023-02-14T23:42:42.961Z,102405.31
2023-02-14T23:45:30.053Z,102403.16
2023-02-14T23:48:05.770Z,102405.77
2023-02-14T23:50:34.157Z,102402.23
2023-02-14T23:53:02.547Z,102403.30
2023-02-14T23:55:31.916Z,102401.14
2023-02-14T23:58:01.698Z,102398.12
